createdAt,value
2024-02-07T00:00:08.347Z,605.00
2024-02-07T00:01:06.264Z,605.00
2024-02-07T00:02:06.301Z,603.00
2024-02-07T00:03:06.124Z,606.00
2024-02-07T00:04:06.180Z,603.00
2024-02-07T00:05:06.250Z,608.00
2024-02-07T00:06:06.182Z,606.00
2024-02-07T00:07:06.247Z,604.00
2024-02-07T00:08:06.189Z,607.00
2024-02-07T00:09:06.117Z,606.00
2024-02-07T00:10:06.166Z,606.00
2024-02-07T00:11:06.120Z,607.00
2024-02-07T00:12:06.088Z,608.00
2024-02-07T00:13:06.154Z,605.00
2024-02-07T00:14:06.104Z,602.00
2024-02-07T00:15:06.096Z,605.00
2024-02-07T00:16:06.152Z,604.00
2024-02-07T00:17:06.122Z,607.00
2024-02-07T00:18:06.158Z,600.00
2024-02-07T00:19:06.214Z,606.00
2024-02-07T00:20:06.138Z,606.00
2024-02-07T00:21:06.113Z,609.00
2024-02-07T00:22:06.119Z,603.00
2024-02-07T00:23:06.167Z,606.00
2024-02-07T00:24:06.149Z,603.00
2024-02-07T00:25:06.187Z,606.00
2024-02-07T00:26:06.092Z,602.00
2024-02-07T00:27:06.112Z,607.00
2024-02-07T00:28:06.217Z,606.00
2024-02-07T00:29:06.138Z,606.00
2024-02-07T00:30:06.103Z,604.00
2024-02-07T00:31:06.149Z,605.00
2024-02-07T00:32:06.138Z,605.00
2024-02-07T00:33:06.162Z,605.00
2024-02-07T00:34:06.155Z,607.00
2024-02-07T00:35:06.240Z,608.00
2024-02-07T00:36:06.140Z,605.00
2024-02-07T00:37:06.259Z,609.00
2024-02-07T00:38:06.152Z,603.00
2024-02-07T00:39:06.140Z,609.00
2024-02-07T00:40:06.171Z,607.00
2024-02-07T00:41:06.140Z,607.00
2024-02-07T00:42:06.141Z,603.00
2024-02-07T00:43:06.185Z,604.00
2024-02-07T00:44:06.136Z,607.00
2024-02-07T00:45:06.151Z,603.00
2024-02-07T00:46:06.190Z,606.00
2024-02-07T00:47:06.144Z,605.00
2024-02-07T00:48:06.180Z,605.00
2024-02-07T00:49:06.241Z,606.00
2024-02-07T00:50:06.260Z,602.00
2024-02-07T00:51:06.127Z,607.00
2024-02-07T00:52:06.194Z,604.00
2024-02-07T00:53:06.151Z,607.00
2024-02-07T00:54:06.150Z,606.00
2024-02-07T00:55:06.170Z,607.00
2024-02-07T00:56:06.161Z,608.00
2024-02-07T00:57:06.192Z,608.00
2024-02-07T00:58:06.265Z,607.00
2024-02-07T00:59:06.157Z,606.00
2024-02-07T01:00:06.148Z,606.00
2024-02-07T01:01:06.279Z,605.00
2024-02-07T01:02:06.179Z,606.00
2024-02-07T01:03:06.163Z,606.00
2024-02-07T01:04:06.246Z,606.00
2024-02-07T01:05:06.377Z,607.00
2024-02-07T01:06:06.252Z,609.00
2024-02-07T01:07:06.307Z,607.00
2024-02-07T01:08:06.303Z,608.00
2024-02-07T01:09:06.176Z,607.00
2024-02-07T01:10:06.387Z,606.00
2024-02-07T01:11:06.203Z,607.00
2024-02-07T01:12:06.222Z,606.00
2024-02-07T01:13:06.189Z,608.00
2024-02-07T01:14:06.201Z,606.00
2024-02-07T01:15:06.151Z,604.00
2024-02-07T01:16:06.174Z,604.00
2024-02-07T01:17:06.190Z,607.00
2024-02-07T01:18:06.267Z,606.00
2024-02-07T01:19:06.287Z,605.00
2024-02-07T01:20:06.416Z,607.00
2024-02-07T01:21:06.226Z,608.00
2024-02-07T01:22:06.262Z,606.00
2024-02-07T01:23:06.188Z,608.00
2024-02-07T01:24:06.194Z,608.00
2024-02-07T01:25:06.229Z,609.00
2024-02-07T01:26:06.180Z,607.00
2024-02-07T01:27:06.198Z,609.00
2024-02-07T01:28:06.280Z,609.00
2024-02-07T01:29:06.177Z,609.00
2024-02-07T01:30:06.156Z,606.00
2024-02-07T01:31:06.371Z,608.00
2024-02-07T01:32:06.168Z,605.00
2024-02-07T01:33:06.288Z,608.00
2024-02-07T01:34:06.261Z,605.00
2024-02-07T01:35:06.270Z,606.00
2024-02-07T01:36:06.201Z,609.00
2024-02-07T01:37:06.333Z,604.00
2024-02-07T01:38:06.218Z,609.00
2024-02-07T01:39:06.317Z,605.00
2024-02-07T01:40:06.235Z,609.00
2024-02-07T01:41:06.354Z,607.00
2024-02-07T01:42:06.288Z,608.00
2024-02-07T01:43:06.361Z,603.00
2024-02-07T01:44:06.318Z,602.00
2024-02-07T01:45:06.348Z,604.00
2024-02-07T01:46:06.418Z,604.00
2024-02-07T01:47:06.331Z,605.00
2024-02-07T01:48:09.390Z,602.00
2024-02-07T01:49:06.457Z,606.00
2024-02-07T01:50:06.370Z,606.00
2024-02-07T01:51:06.353Z,607.00
2024-02-07T01:52:06.492Z,607.00
2024-02-07T01:53:06.353Z,604.00
2024-02-07T01:54:06.376Z,602.00
2024-02-07T01:55:06.388Z,605.00
2024-02-07T01:56:06.419Z,604.00
2024-02-07T01:57:06.406Z,605.00
2024-02-07T01:58:06.408Z,602.00
2024-02-07T01:59:06.374Z,603.00
2024-02-07T02:00:06.382Z,603.00
2024-02-07T02:01:06.419Z,602.00
2024-02-07T02:02:06.419Z,607.00
2024-02-07T02:03:06.410Z,602.00
2024-02-07T02:04:06.502Z,604.00
2024-02-07T02:05:06.488Z,602.00
2024-02-07T02:06:06.400Z,604.00
2024-02-07T02:07:06.372Z,603.00
2024-02-07T02:08:06.424Z,605.00
2024-02-07T02:09:06.431Z,608.00
2024-02-07T02:10:06.417Z,602.00
2024-02-07T02:11:06.497Z,608.00
2024-02-07T02:12:06.395Z,603.00
2024-02-07T02:13:06.364Z,606.00
2024-02-07T02:14:06.414Z,606.00
2024-02-07T02:15:06.384Z,603.00
2024-02-07T02:16:06.410Z,601.00
2024-02-07T02:17:06.401Z,604.00
2024-02-07T02:18:06.418Z,600.00
2024-02-07T02:19:06.432Z,602.00
2024-02-07T02:20:06.690Z,606.00
2024-02-07T02:21:06.401Z,603.00
2024-02-07T02:22:06.416Z,600.00
2024-02-07T02:23:06.420Z,605.00
2024-02-07T02:24:06.395Z,606.00
2024-02-07T02:25:06.417Z,603.00
2024-02-07T02:26:06.418Z,607.00
2024-02-07T02:27:06.402Z,607.00
2024-02-07T02:28:06.417Z,603.00
2024-02-07T02:29:06.628Z,606.00
2024-02-07T02:30:06.425Z,605.00
2024-02-07T02:31:06.423Z,603.00
2024-02-07T02:32:06.417Z,605.00
2024-02-07T02:33:06.530Z,603.00
2024-02-07T02:34:06.414Z,605.00
2024-02-07T02:35:06.481Z,604.00
2024-02-07T02:36:06.415Z,602.00
2024-02-07T02:37:06.450Z,605.00
2024-02-07T02:38:06.444Z,604.00
2024-02-07T02:39:06.427Z,607.00
2024-02-07T02:40:06.401Z,606.00
2024-02-07T02:41:07.590Z,604.00
2024-02-07T02:42:06.392Z,606.00
2024-02-07T02:43:06.439Z,605.00
2024-02-07T02:44:06.475Z,605.00
2024-02-07T02:45:06.451Z,607.00
2024-02-07T02:46:06.443Z,602.00
2024-02-07T02:47:06.420Z,606.00
2024-02-07T02:48:06.596Z,605.00
2024-02-07T02:49:06.491Z,607.00
2024-02-07T02:50:06.460Z,604.00
2024-02-07T02:51:06.432Z,607.00
2024-02-07T02:52:06.420Z,606.00
2024-02-07T02:53:06.442Z,605.00
2024-02-07T02:54:06.464Z,605.00
2024-02-07T02:55:06.436Z,605.00
2024-02-07T02:56:06.508Z,602.00
2024-02-07T02:57:06.434Z,606.00
2024-02-07T02:58:06.464Z,603.00
2024-02-07T02:59:06.542Z,605.00
2024-02-07T03:00:06.432Z,600.00
2024-02-07T03:01:06.497Z,606.00
2024-02-07T03:02:06.467Z,603.00
2024-02-07T03:03:06.458Z,604.00
2024-02-07T03:04:06.496Z,602.00
2024-02-07T03:05:06.531Z,603.00
2024-02-07T03:06:06.635Z,608.00
2024-02-07T03:07:06.528Z,606.00
2024-02-07T03:08:06.627Z,600.00
2024-02-07T03:09:06.459Z,604.00
2024-02-07T03:10:06.454Z,607.00
2024-02-07T03:11:06.448Z,605.00
2024-02-07T03:12:07.304Z,602.00
2024-02-07T03:13:06.461Z,607.00
2024-02-07T03:14:06.525Z,607.00
2024-02-07T03:15:06.430Z,605.00
2024-02-07T03:16:06.458Z,605.00
2024-02-07T03:17:06.462Z,606.00
2024-02-07T03:18:06.545Z,606.00
2024-02-07T03:19:06.504Z,606.00
2024-02-07T03:20:06.491Z,604.00
2024-02-07T03:21:06.527Z,608.00
2024-02-07T03:22:06.515Z,605.00
2024-02-07T03:23:06.599Z,607.00
2024-02-07T03:24:06.641Z,609.00
2024-02-07T03:25:06.654Z,606.00
2024-02-07T03:26:06.646Z,604.00
2024-02-07T03:27:06.749Z,607.00
2024-02-07T03:28:06.772Z,610.00
2024-02-07T03:29:06.809Z,607.00
2024-02-07T03:30:06.957Z,600.00
2024-02-07T03:31:06.978Z,605.00
2024-02-07T03:32:06.901Z,604.00
2024-02-07T03:33:06.932Z,603.00
2024-02-07T03:34:06.991Z,606.00
2024-02-07T03:35:07.045Z,606.00
2024-02-07T03:36:06.991Z,607.00
2024-02-07T03:37:07.033Z,605.00
2024-02-07T03:38:07.086Z,605.00
2024-02-07T03:39:07.109Z,607.00
2024-02-07T03:40:07.148Z,607.00
2024-02-07T03:41:07.197Z,605.00
2024-02-07T03:42:07.211Z,601.00
2024-02-07T03:43:07.234Z,603.00
2024-02-07T03:44:07.279Z,606.00
2024-02-07T03:45:07.308Z,609.00
2024-02-07T03:46:07.670Z,607.00
2024-02-07T03:47:07.401Z,603.00
2024-02-07T03:48:07.445Z,605.00
2024-02-07T03:49:07.495Z,605.00
2024-02-07T03:50:07.482Z,607.00
2024-02-07T03:51:07.450Z,606.00
2024-02-07T03:52:07.508Z,608.00
2024-02-07T03:53:07.552Z,605.00
2024-02-07T03:54:07.562Z,608.00
2024-02-07T03:55:07.600Z,607.00
2024-02-07T03:56:07.625Z,606.00
2024-02-07T03:57:07.654Z,602.00
2024-02-07T03:58:07.685Z,609.00
2024-02-07T03:59:07.762Z,606.00
2024-02-07T04:00:07.744Z,605.00
2024-02-07T04:01:07.856Z,607.00
2024-02-07T04:02:07.857Z,607.00
2024-02-07T04:03:07.830Z,606.00
2024-02-07T04:04:07.863Z,607.00
2024-02-07T04:05:08.110Z,606.00
2024-02-07T04:06:07.965Z,605.00
2024-02-07T04:07:08.118Z,606.00
2024-02-07T04:08:08.220Z,604.00
2024-02-07T04:09:08.151Z,603.00
2024-02-07T04:10:08.024Z,606.00
2024-02-07T04:11:08.137Z,604.00
2024-02-07T04:12:08.090Z,606.00
2024-02-07T04:13:08.142Z,601.00
2024-02-07T04:14:08.165Z,604.00
2024-02-07T04:15:08.217Z,602.00
2024-02-07T04:16:08.358Z,604.00
2024-02-07T04:17:08.262Z,606.00
2024-02-07T04:18:08.441Z,604.00
2024-02-07T04:19:08.410Z,603.00
2024-02-07T04:20:08.443Z,603.00
2024-02-07T04:21:08.403Z,603.00
2024-02-07T04:22:08.490Z,604.00
2024-02-07T04:23:08.491Z,606.00
2024-02-07T04:24:08.462Z,604.00
2024-02-07T04:25:08.636Z,606.00
2024-02-07T04:26:08.561Z,602.00
2024-02-07T04:27:08.574Z,603.00
2024-02-07T04:28:08.662Z,602.00
2024-02-07T04:29:08.663Z,601.00
2024-02-07T04:30:08.673Z,604.00
2024-02-07T04:31:08.727Z,605.00
2024-02-07T04:32:08.727Z,608.00
2024-02-07T04:33:08.853Z,603.00
2024-02-07T04:34:08.916Z,606.00
2024-02-07T04:35:08.891Z,604.00
2024-02-07T04:36:08.884Z,607.00
2024-02-07T04:37:08.999Z,606.00
2024-02-07T04:38:09.003Z,606.00
2024-02-07T04:39:09.003Z,603.00
2024-02-07T04:40:09.050Z,604.00
2024-02-07T04:41:09.078Z,604.00
2024-02-07T04:42:16.406Z,600.00
2024-02-07T04:43:16.432Z,600.00
2024-02-07T04:44:16.386Z,600.00
2024-02-07T04:45:16.338Z,600.00
2024-02-07T04:46:16.456Z,600.00
2024-02-07T04:47:16.352Z,602.00
2024-02-07T04:48:16.386Z,603.00
2024-02-07T04:49:16.457Z,604.00
2024-02-07T04:50:16.395Z,601.00
2024-02-07T04:51:16.739Z,599.00
2024-02-07T04:52:16.399Z,603.00
2024-02-07T04:53:16.384Z,600.00
2024-02-07T04:54:16.411Z,604.00
2024-02-07T04:55:16.360Z,601.00
2024-02-07T04:56:16.367Z,602.00
2024-02-07T04:57:16.380Z,601.00
2024-02-07T04:58:16.514Z,602.00
2024-02-07T04:59:16.370Z,600.00
2024-02-07T05:00:16.374Z,604.00
2024-02-07T05:01:16.481Z,605.00
2024-02-07T05:02:16.472Z,604.00
2024-02-07T05:03:16.417Z,602.00
2024-02-07T05:04:16.462Z,600.00
2024-02-07T05:05:16.436Z,602.00
2024-02-07T05:06:16.500Z,604.00
2024-02-07T05:07:16.401Z,606.00
2024-02-07T05:08:16.392Z,604.00
2024-02-07T05:09:16.403Z,605.00
2024-02-07T05:10:16.439Z,603.00
2024-02-07T05:11:16.384Z,607.00
2024-02-07T05:12:16.395Z,603.00
2024-02-07T05:13:16.438Z,604.00
2024-02-07T05:14:16.417Z,602.00
2024-02-07T05:15:16.424Z,602.00
2024-02-07T05:16:16.432Z,603.00
2024-02-07T05:17:16.422Z,603.00
2024-02-07T05:18:16.445Z,607.00
2024-02-07T05:19:16.510Z,603.00
2024-02-07T05:20:16.477Z,605.00
2024-02-07T05:21:16.459Z,606.00
2024-02-07T05:22:16.462Z,607.00
2024-02-07T05:23:16.431Z,606.00
2024-02-07T05:24:16.436Z,606.00
2024-02-07T05:25:16.477Z,604.00
2024-02-07T05:26:19.498Z,603.00
2024-02-07T05:27:16.441Z,603.00
2024-02-07T05:28:16.517Z,604.00
2024-02-07T05:29:16.454Z,603.00
2024-02-07T05:30:16.429Z,603.00
2024-02-07T05:31:16.483Z,602.00
2024-02-07T05:32:16.543Z,606.00
2024-02-07T05:33:16.551Z,606.00
2024-02-07T05:34:16.681Z,603.00
2024-02-07T05:35:16.544Z,601.00
2024-02-07T05:36:16.453Z,601.00
2024-02-07T05:37:16.534Z,604.00
2024-02-07T05:38:16.425Z,604.00
2024-02-07T05:39:16.472Z,604.00
2024-02-07T05:40:16.491Z,603.00
2024-02-07T05:41:16.462Z,605.00
2024-02-07T05:42:16.454Z,600.00
2024-02-07T05:43:16.503Z,601.00
2024-02-07T05:44:16.443Z,603.00
2024-02-07T05:45:16.428Z,601.00
2024-02-07T05:46:16.503Z,604.00
2024-02-07T05:47:16.475Z,602.00
2024-02-07T05:48:16.537Z,605.00
2024-02-07T05:49:16.678Z,601.00
2024-02-07T05:50:16.753Z,604.00
2024-02-07T05:51:16.461Z,605.00
2024-02-07T05:52:16.849Z,604.00
2024-02-07T05:53:16.473Z,603.00
2024-02-07T05:54:16.476Z,603.00
2024-02-07T05:55:16.534Z,605.00
2024-02-07T05:56:16.619Z,603.00
2024-02-07T05:57:16.483Z,606.00
2024-02-07T05:58:20.266Z,604.00
2024-02-07T05:59:17.496Z,604.00
2024-02-07T06:00:16.480Z,605.00
2024-02-07T06:01:16.662Z,605.00
2024-02-07T06:02:16.604Z,604.00
2024-02-07T06:03:16.515Z,604.00
2024-02-07T06:04:19.581Z,605.00
2024-02-07T06:05:16.588Z,605.00
2024-02-07T06:06:16.511Z,605.00
2024-02-07T06:07:16.677Z,605.00
2024-02-07T06:08:16.529Z,606.00
2024-02-07T06:09:16.506Z,605.00
2024-02-07T06:10:16.571Z,607.00
2024-02-07T06:11:16.484Z,602.00
2024-02-07T06:12:16.481Z,602.00
2024-02-07T06:13:16.539Z,609.00
2024-02-07T06:14:16.751Z,610.00
2024-02-07T06:15:16.505Z,602.00
2024-02-07T06:16:16.533Z,604.00
2024-02-07T06:17:16.472Z,605.00
2024-02-07T06:18:16.518Z,606.00
2024-02-07T06:19:16.604Z,603.00
2024-02-07T06:20:16.729Z,604.00
2024-02-07T06:21:16.591Z,605.00
2024-02-07T06:22:16.627Z,602.00
2024-02-07T06:23:16.545Z,603.00
2024-02-07T06:24:16.509Z,602.00
2024-02-07T06:25:16.754Z,604.00
2024-02-07T06:26:16.524Z,605.00
2024-02-07T06:27:16.529Z,603.00
2024-02-07T06:28:16.555Z,604.00
2024-02-07T06:29:16.523Z,606.00
2024-02-07T06:30:16.493Z,603.00
2024-02-07T06:31:16.584Z,604.00
2024-02-07T06:32:16.520Z,604.00
2024-02-07T06:33:16.583Z,605.00
2024-02-07T06:34:16.848Z,604.00
2024-02-07T06:35:16.735Z,602.00
2024-02-07T06:36:16.552Z,606.00
2024-02-07T06:37:16.592Z,603.00
2024-02-07T06:38:16.542Z,606.00
2024-02-07T06:39:16.517Z,629.00
2024-02-07T06:40:16.584Z,651.00
2024-02-07T06:41:16.526Z,665.00
2024-02-07T06:42:16.541Z,681.00
2024-02-07T06:43:16.583Z,688.00
2024-02-07T06:44:16.552Z,672.00
2024-02-07T06:45:16.540Z,657.00
2024-02-07T06:46:16.565Z,645.00
2024-02-07T06:47:16.591Z,632.00
2024-02-07T06:48:16.616Z,622.00
2024-02-07T06:49:16.719Z,611.00
2024-02-07T06:50:20.268Z,601.00
2024-02-07T06:51:16.616Z,598.00
2024-02-07T06:52:16.719Z,594.00
2024-02-07T06:53:17.006Z,586.00
2024-02-07T06:54:16.630Z,592.00
2024-02-07T06:55:16.722Z,590.00
2024-02-07T06:56:16.725Z,602.00
2024-02-07T06:57:16.687Z,603.00
2024-02-07T06:58:16.699Z,611.00
2024-02-07T06:59:16.660Z,616.00
2024-02-07T07:00:16.639Z,619.00
2024-02-07T07:01:16.774Z,630.00
2024-02-07T07:02:16.766Z,636.00
2024-02-07T07:03:16.702Z,641.00
2024-02-07T07:04:16.691Z,645.00
2024-02-07T07:05:16.720Z,649.00
2024-02-07T07:06:16.744Z,659.00
2024-02-07T07:07:16.689Z,671.00
2024-02-07T07:08:16.686Z,690.00
2024-02-07T07:09:16.672Z,732.00
2024-02-07T07:10:16.706Z,751.00
2024-02-07T07:11:16.696Z,780.00
2024-02-07T07:12:16.701Z,797.00
2024-02-07T07:13:16.753Z,838.00
2024-02-07T07:14:16.690Z,846.00
2024-02-07T07:15:25.890Z,883.00
2024-02-07T07:16:17.729Z,884.00
2024-02-07T07:17:16.707Z,890.00
2024-02-07T07:18:16.747Z,905.00
2024-02-07T07:19:16.749Z,942.00
2024-02-07T07:20:16.790Z,993.00
2024-02-07T07:21:16.704Z,1019.00
2024-02-07T07:22:16.732Z,1036.00
2024-02-07T07:23:17.255Z,1053.00
2024-02-07T07:24:16.712Z,1077.00
2024-02-07T07:25:16.789Z,1095.00
2024-02-07T07:26:16.741Z,1103.00
2024-02-07T07:27:16.697Z,1125.00
2024-02-07T07:28:16.790Z,1138.00
2024-02-07T07:29:16.703Z,1157.00
2024-02-07T07:30:16.757Z,1175.00
2024-02-07T07:31:16.749Z,1200.00
2024-02-07T07:32:16.734Z,1218.00
2024-02-07T07:33:16.746Z,1237.00
2024-02-07T07:34:16.803Z,1253.00
2024-02-07T07:35:16.947Z,1266.00
2024-02-07T07:36:16.835Z,1279.00
2024-02-07T07:37:16.955Z,1287.00
2024-02-07T07:38:17.017Z,1296.00
2024-02-07T07:39:17.081Z,1302.00
2024-02-07T07:40:17.168Z,1324.00
2024-02-07T07:41:17.216Z,1337.00
2024-02-07T07:42:17.272Z,1356.00
2024-02-07T07:43:17.402Z,1368.00
2024-02-07T07:44:17.388Z,1381.00
2024-02-07T07:45:17.473Z,1399.00
2024-02-07T07:46:17.502Z,1416.00
2024-02-07T07:47:17.586Z,1425.00
2024-02-07T07:48:20.260Z,1429.00
2024-02-07T07:49:18.747Z,1430.00
2024-02-07T07:50:17.729Z,1434.00
2024-02-07T07:51:17.621Z,1443.00
2024-02-07T07:52:17.641Z,1460.00
2024-02-07T07:53:17.632Z,1481.00
2024-02-07T07:54:17.606Z,1489.00
2024-02-07T07:55:17.660Z,1497.00
2024-02-07T07:56:17.814Z,1503.00
2024-02-07T07:57:17.706Z,1498.00
2024-02-07T07:58:17.759Z,1503.00
2024-02-07T07:59:17.909Z,1501.00
2024-02-07T08:00:17.901Z,1494.00
2024-02-07T08:01:18.003Z,1493.00
2024-02-07T08:02:18.081Z,1492.00
2024-02-07T08:03:18.110Z,1483.00
2024-02-07T08:04:18.200Z,1486.00
2024-02-07T08:05:18.300Z,1491.00
2024-02-07T08:06:18.257Z,1481.00
2024-02-07T08:07:18.366Z,1489.00
2024-02-07T08:08:18.586Z,1494.00
2024-02-07T08:09:18.411Z,1484.00
2024-02-07T08:10:18.432Z,1482.00
2024-02-07T08:11:18.392Z,1476.00
2024-02-07T08:12:18.416Z,1465.00
2024-02-07T08:13:18.467Z,1451.00
2024-02-07T08:14:18.436Z,1429.00
2024-02-07T08:15:18.548Z,1421.00
2024-02-07T08:16:18.626Z,1398.00
2024-02-07T08:17:18.596Z,1377.00
2024-02-07T08:18:18.570Z,1356.00
2024-02-07T08:19:18.701Z,1344.00
2024-02-07T08:20:18.669Z,1329.00
2024-02-07T08:21:18.619Z,1300.00
2024-02-07T08:22:18.686Z,1296.00
2024-02-07T08:23:18.661Z,1278.00
2024-02-07T08:24:18.668Z,1278.00
2024-02-07T08:25:18.705Z,1271.00
2024-02-07T08:26:18.779Z,1260.00
2024-02-07T08:27:18.804Z,1256.00
2024-02-07T08:28:18.978Z,1247.00
2024-02-07T08:29:18.924Z,1246.00
2024-02-07T08:30:18.975Z,1256.00
2024-02-07T08:31:19.032Z,1258.00
2024-02-07T08:32:19.351Z,1248.00
2024-02-07T08:33:20.615Z,1252.00
2024-02-07T08:34:19.399Z,1259.00
2024-02-07T08:35:19.400Z,1269.00
2024-02-07T08:36:19.532Z,1267.00
2024-02-07T08:37:21.905Z,1272.00
2024-02-07T08:38:19.414Z,1279.00
2024-02-07T08:39:19.410Z,1286.00
2024-02-07T08:40:19.488Z,1295.00
2024-02-07T08:41:19.413Z,1310.00
2024-02-07T08:42:19.512Z,1307.00
2024-02-07T08:43:19.460Z,1320.00
2024-02-07T08:44:19.445Z,1321.00
2024-02-07T08:45:19.416Z,1327.00
2024-02-07T08:46:19.453Z,1326.00
2024-02-07T08:47:19.430Z,1328.00
2024-02-07T08:48:19.536Z,1325.00
2024-02-07T08:49:19.560Z,1313.00
2024-02-07T08:50:19.494Z,1299.00
2024-02-07T08:51:19.450Z,1292.00
2024-02-07T08:52:19.468Z,1284.00
2024-02-07T08:53:21.543Z,1267.00
2024-02-07T08:54:19.466Z,1262.00
2024-02-07T08:55:19.491Z,1246.00
2024-02-07T08:56:19.491Z,1233.00
2024-02-07T08:57:19.507Z,1205.00
2024-02-07T08:58:19.538Z,1186.00
2024-02-07T08:59:19.513Z,1178.00
2024-02-07T09:00:19.570Z,1155.00
2024-02-07T09:01:19.641Z,1139.00
2024-02-07T09:02:19.652Z,1123.00
2024-02-07T09:03:19.590Z,1119.00
2024-02-07T09:04:19.685Z,1091.00
2024-02-07T09:05:19.763Z,1084.00
2024-02-07T09:06:19.746Z,1065.00
2024-02-07T09:07:22.606Z,1045.00
2024-02-07T09:08:19.821Z,1041.00
2024-02-07T09:09:19.705Z,1025.00
2024-02-07T09:10:19.764Z,1001.00
2024-02-07T09:11:19.721Z,991.00
2024-02-07T09:12:19.724Z,979.00
2024-02-07T09:13:19.764Z,975.00
2024-02-07T09:14:19.713Z,956.00
2024-02-07T09:15:19.730Z,942.00
2024-02-07T09:16:19.727Z,935.00
2024-02-07T09:17:19.690Z,928.00
2024-02-07T09:18:19.825Z,918.00
2024-02-07T09:19:19.797Z,906.00
2024-02-07T09:20:19.805Z,888.00
2024-02-07T09:21:19.743Z,886.00
2024-02-07T09:22:19.769Z,874.00
2024-02-07T09:23:19.758Z,862.00
2024-02-07T09:24:19.737Z,867.00
2024-02-07T09:25:19.771Z,845.00
2024-02-07T09:26:19.719Z,818.00
2024-02-07T09:27:19.934Z,807.00
2024-02-07T09:28:19.769Z,813.00
2024-02-07T09:29:19.739Z,808.00
2024-02-07T09:30:19.741Z,802.00
2024-02-07T09:31:19.750Z,802.00
2024-02-07T09:32:19.739Z,791.00
2024-02-07T09:33:19.899Z,805.00
2024-02-07T09:34:19.914Z,806.00
2024-02-07T09:35:19.846Z,795.00
2024-02-07T09:36:19.820Z,801.00
2024-02-07T09:37:19.816Z,805.00
2024-02-07T09:38:21.096Z,813.00
2024-02-07T09:39:19.774Z,816.00
2024-02-07T09:40:19.812Z,818.00
2024-02-07T09:41:19.744Z,824.00
2024-02-07T09:42:19.764Z,824.00
2024-02-07T09:43:19.826Z,834.00
2024-02-07T09:44:19.740Z,834.00
2024-02-07T09:45:19.774Z,843.00
2024-02-07T09:46:19.781Z,847.00
2024-02-07T09:47:19.819Z,861.00
2024-02-07T09:48:19.933Z,869.00
2024-02-07T09:49:19.927Z,895.00
2024-02-07T09:50:19.900Z,901.00
2024-02-07T09:51:19.765Z,905.00
2024-02-07T09:52:19.831Z,917.00
2024-02-07T09:53:19.790Z,928.00
2024-02-07T09:54:19.755Z,937.00
2024-02-07T09:55:19.803Z,952.00
2024-02-07T09:56:19.759Z,955.00
2024-02-07T09:57:19.774Z,971.00
2024-02-07T09:58:19.799Z,979.00
2024-02-07T09:59:21.149Z,996.00
2024-02-07T10:00:19.758Z,1003.00
2024-02-07T10:01:19.925Z,1012.00
2024-02-07T10:02:19.837Z,1018.00
2024-02-07T10:03:19.901Z,1031.00
2024-02-07T10:04:20.239Z,1045.00
2024-02-07T10:05:20.171Z,1050.00
2024-02-07T10:06:20.126Z,1065.00
2024-02-07T10:07:20.144Z,1081.00
2024-02-07T10:08:20.214Z,1091.00
2024-02-07T10:09:20.274Z,1091.00
2024-02-07T10:10:20.884Z,1109.00
2024-02-07T10:11:20.414Z,1121.00
2024-02-07T10:12:20.441Z,1130.00
2024-02-07T10:13:20.604Z,1142.00
2024-02-07T10:14:20.544Z,1156.00
2024-02-07T10:15:20.611Z,1167.00
2024-02-07T10:16:20.723Z,1173.00
2024-02-07T10:17:20.766Z,1191.00
2024-02-07T10:18:20.941Z,1184.00
2024-02-07T10:19:20.866Z,1205.00
2024-02-07T10:20:20.982Z,1214.00
2024-02-07T10:21:20.936Z,1219.00
2024-02-07T10:22:21.072Z,1227.00
2024-02-07T10:23:21.079Z,1233.00
2024-02-07T10:24:21.120Z,1249.00
2024-02-07T10:25:21.320Z,1250.00
2024-02-07T10:26:21.304Z,1261.00
2024-02-07T10:27:21.375Z,1264.00
2024-02-07T10:28:21.460Z,1254.00
2024-02-07T10:29:21.441Z,1264.00
2024-02-07T10:30:21.482Z,1256.00
2024-02-07T10:31:21.560Z,1259.00
2024-02-07T10:32:21.550Z,1250.00
2024-02-07T10:33:29.348Z,1253.00
2024-02-07T10:34:22.739Z,1248.00
2024-02-07T10:35:21.968Z,1243.00
2024-02-07T10:36:21.657Z,1221.00
2024-02-07T10:37:21.662Z,1226.00
2024-02-07T10:38:21.635Z,1203.00
2024-02-07T10:39:21.636Z,1181.00
2024-02-07T10:40:21.639Z,1176.00
2024-02-07T10:41:21.721Z,1156.00
2024-02-07T10:42:21.658Z,1141.00
2024-02-07T10:43:21.700Z,1118.00
2024-02-07T10:44:21.662Z,1109.00
2024-02-07T10:45:21.646Z,1085.00
2024-02-07T10:46:21.718Z,1073.00
2024-02-07T10:47:21.684Z,1051.00
2024-02-07T10:48:21.784Z,1030.00
2024-02-07T10:49:21.873Z,1013.00
2024-02-07T10:50:21.765Z,998.00
2024-02-07T10:51:21.649Z,984.00
2024-02-07T10:52:21.675Z,982.00
2024-02-07T10:53:21.664Z,973.00
2024-02-07T10:54:21.646Z,957.00
2024-02-07T10:55:21.701Z,947.00
2024-02-07T10:56:21.682Z,950.00
2024-02-07T10:57:21.706Z,945.00
2024-02-07T10:58:21.673Z,935.00
2024-02-07T10:59:21.750Z,925.00
2024-02-07T11:00:21.716Z,920.00
2024-02-07T11:01:21.816Z,908.00
2024-02-07T11:02:21.742Z,908.00
2024-02-07T11:03:21.728Z,902.00
2024-02-07T11:04:21.777Z,891.00
2024-02-07T11:05:21.773Z,890.00
2024-02-07T11:06:21.872Z,887.00
2024-02-07T11:07:22.161Z,891.00
2024-02-07T11:08:21.800Z,875.00
2024-02-07T11:09:21.742Z,873.00
2024-02-07T11:10:21.872Z,872.00
2024-02-07T11:11:21.898Z,875.00
2024-02-07T11:12:21.782Z,867.00
2024-02-07T11:13:21.831Z,866.00
2024-02-07T11:14:21.786Z,863.00
2024-02-07T11:15:21.830Z,859.00
2024-02-07T11:16:21.830Z,854.00
2024-02-07T11:17:21.990Z,847.00
2024-02-07T11:18:21.851Z,855.00
2024-02-07T11:19:21.897Z,852.00
2024-02-07T11:20:21.962Z,852.00
2024-02-07T11:21:21.846Z,854.00
2024-02-07T11:22:21.872Z,843.00
2024-02-07T11:23:21.877Z,847.00
2024-02-07T11:24:21.867Z,839.00
2024-02-07T11:25:21.914Z,849.00
2024-02-07T11:26:21.897Z,851.00
2024-02-07T11:27:21.885Z,833.00
2024-02-07T11:28:22.016Z,840.00
2024-02-07T11:29:21.958Z,838.00
2024-02-07T11:30:21.900Z,828.00
2024-02-07T11:31:21.961Z,827.00
2024-02-07T11:32:21.956Z,838.00
2024-02-07T11:33:21.962Z,832.00
2024-02-07T11:34:22.026Z,835.00
2024-02-07T11:35:22.476Z,825.00
2024-02-07T11:36:21.928Z,822.00
2024-02-07T11:37:22.007Z,818.00
2024-02-07T11:38:21.967Z,822.00
2024-02-07T11:39:21.959Z,811.00
2024-02-07T11:40:21.987Z,815.00
2024-02-07T11:41:22.142Z,823.00
2024-02-07T11:42:22.096Z,824.00
2024-02-07T11:43:22.143Z,831.00
2024-02-07T11:44:22.028Z,817.00
2024-02-07T11:45:22.120Z,822.00
2024-02-07T11:46:22.088Z,814.00
2024-02-07T11:47:22.052Z,808.00
2024-02-07T11:48:22.157Z,820.00
2024-02-07T11:49:22.321Z,815.00
2024-02-07T11:50:22.179Z,813.00
2024-02-07T11:51:22.149Z,809.00
2024-02-07T11:52:22.193Z,813.00
2024-02-07T11:53:22.267Z,811.00
2024-02-07T11:54:22.308Z,802.00
2024-02-07T11:55:22.377Z,817.00
2024-02-07T11:56:22.328Z,802.00
2024-02-07T11:57:22.261Z,807.00
2024-02-07T11:58:22.349Z,802.00
2024-02-07T11:59:22.310Z,802.00
2024-02-07T12:00:22.329Z,801.00
2024-02-07T12:01:22.402Z,794.00
2024-02-07T12:02:22.285Z,804.00
2024-02-07T12:03:22.631Z,805.00
2024-02-07T12:04:22.928Z,800.00
2024-02-07T12:05:23.072Z,807.00
2024-02-07T12:06:22.402Z,805.00
2024-02-07T12:07:22.369Z,795.00
2024-02-07T12:08:22.345Z,804.00
2024-02-07T12:09:22.351Z,806.00
2024-02-07T12:10:22.397Z,796.00
2024-02-07T12:11:22.335Z,791.00
2024-02-07T12:12:22.372Z,795.00
2024-02-07T12:13:22.408Z,802.00
2024-02-07T12:14:22.398Z,790.00
2024-02-07T12:15:22.386Z,792.00
2024-02-07T12:16:22.448Z,792.00
2024-02-07T12:17:22.397Z,799.00
2024-02-07T12:18:22.421Z,788.00
2024-02-07T12:19:22.508Z,793.00
2024-02-07T12:20:22.479Z,796.00
2024-02-07T12:21:26.011Z,801.00
2024-02-07T12:22:22.469Z,801.00
2024-02-07T12:23:22.434Z,800.00